Terminal Aerodrome Forecast
Issued by NWS

Home | Current Version | Previous Version | Text Only | Print | Product List | Glossary On
Versions: 1 2 3 4 5 6 7 8 9 10 11 12 13 14 15 16 17 18 19 20 21 22
000
FTUS43 KDTX 311140
TAFDET
TAF
KDET 311140Z 3112/0112 17005KT P6SM BKN028
     FM311400 21005KT P6SM SCT030 BKN060
     FM312100 24009KT P6SM SCT025 BKN040
     FM010000 23005KT P6SM OVC025
     FM010800 VRB03KT 1SM -SN OVC015=

USA.gov is the U.S. government's official web portal to all federal, state and local government web resources and services.